createdAt,value
2022-09-07T00:00:53.743Z,100933.06
2022-09-07T00:03:21.442Z,100943.44
2022-09-07T00:05:50.875Z,100943.59
2022-09-07T00:08:20.587Z,100948.28
2022-09-07T00:11:02.290Z,100936.09
2022-09-07T00:13:32.895Z,100934.44
2022-09-07T00:16:05.493Z,100946.72
2022-09-07T00:18:33.498Z,100948.16
2022-09-07T00:21:09.096Z,100952.91
2022-09-07T00:23:38.503Z,100952.09
2022-09-07T00:26:08.535Z,100951.66
2022-09-07T00:28:37.297Z,100949.03
2022-09-07T00:31:09.867Z,100950.69
2022-09-07T00:33:37.457Z,100959.16
2022-09-07T00:36:04.815Z,100945.56
2022-09-07T00:38:32.241Z,100935.06
2022-09-07T00:40:59.752Z,100947.69
2022-09-07T00:43:33.697Z,100961.91
2022-09-07T00:46:02.219Z,100960.53
2022-09-07T00:48:46.295Z,100952.75
2022-09-07T00:51:20.349Z,100941.03
2022-09-07T00:53:55.713Z,100951.97
2022-09-07T00:56:26.633Z,100955.28
2022-09-07T00:58:53.885Z,100964.28
2022-09-07T01:01:22.039Z,100965.50
2022-09-07T01:03:52.001Z,100958.00
2022-09-07T01:06:26.893Z,100962.19
2022-09-07T01:08:56.726Z,100968.22
2022-09-07T01:11:24.305Z,100957.94
2022-09-07T01:13:54.130Z,100968.50
2022-09-07T01:16:46.487Z,100953.19
2022-09-07T01:19:39.308Z,100958.53
2022-09-07T01:22:29.800Z,100970.41
2022-09-07T01:25:09.645Z,100970.88
2022-09-07T01:27:56.239Z,100961.16
2022-09-07T01:30:24.566Z,100964.25
2022-09-07T01:33:27.448Z,100969.84
2022-09-07T01:36:04.075Z,100969.25
2022-09-07T01:38:55.876Z,100965.34
2022-09-07T01:41:33.193Z,100969.84
2022-09-07T01:44:19.777Z,100969.31
2022-09-07T01:47:20.921Z,100965.56
2022-09-07T01:50:06.359Z,100953.31
2022-09-07T01:52:47.602Z,100966.44
2022-09-07T01:55:24.671Z,100971.31
2022-09-07T01:58:13.746Z,100960.66
2022-09-07T02:00:46.245Z,100967.16
2022-09-07T02:03:25.379Z,100960.66
2022-09-07T02:06:02.335Z,100966.44
2022-09-07T02:08:38.108Z,100959.94
2022-09-07T02:11:11.733Z,100955.84
2022-09-07T02:13:59.375Z,100953.88
2022-09-07T02:16:32.802Z,100969.91
2022-09-07T02:19:05.569Z,100974.47
2022-09-07T02:21:42.277Z,100970.38
2022-09-07T02:24:43.623Z,100964.72
2022-09-07T02:27:24.921Z,100963.41
2022-09-07T02:29:52.384Z,100979.34
2022-09-07T02:32:19.660Z,100958.63
2022-09-07T02:34:47.113Z,100976.88
2022-09-07T02:37:17.008Z,100984.22
2022-09-07T02:39:44.599Z,100970.34
2022-09-07T02:42:11.895Z,100965.06
2022-09-07T02:44:41.503Z,100972.84
2022-09-07T02:47:17.901Z,100982.91
2022-09-07T02:50:01.772Z,100986.44
2022-09-07T02:52:44.120Z,100980.03
2022-09-07T02:55:32.645Z,100983.59
2022-09-07T02:58:18.049Z,100986.13
2022-09-07T03:00:56.837Z,100987.16
2022-09-07T03:03:57.361Z,100994.78
2022-09-07T03:06:31.253Z,100981.25
2022-09-07T03:09:04.454Z,101003.25
2022-09-07T03:11:32.301Z,100993.63
2022-09-07T03:14:17.932Z,101002.00
2022-09-07T03:16:50.963Z,101012.72
2022-09-07T03:19:18.435Z,100999.44
2022-09-07T03:21:46.047Z,101014.38
2022-09-07T03:24:13.454Z,101012.41
2022-09-07T03:26:45.304Z,101014.13
2022-09-07T03:29:13.451Z,101015.31
2022-09-07T03:31:41.080Z,101016.47
2022-09-07T03:34:08.639Z,101006.00
2022-09-07T03:36:36.244Z,101014.91
2022-09-07T03:39:05.169Z,101004.06
2022-09-07T03:41:32.418Z,101011.06
2022-09-07T03:44:07.341Z,101012.75
2022-09-07T03:46:35.501Z,101014.41
2022-09-07T03:49:03.062Z,101008.28
2022-09-07T03:51:31.227Z,101015.53
2022-09-07T03:54:00.134Z,101025.03
2022-09-07T03:56:27.539Z,101042.06
2022-09-07T03:58:55.739Z,101030.09
2022-09-07T04:01:25.655Z,101023.13
2022-09-07T04:03:54.903Z,101028.09
2022-09-07T04:06:23.582Z,101029.13
2022-09-07T04:08:50.964Z,101033.22
2022-09-07T04:11:19.301Z,101032.59
2022-09-07T04:13:46.684Z,101028.16
2022-09-07T04:16:17.362Z,101038.41
2022-09-07T04:18:45.566Z,101035.28
2022-09-07T04:21:14.055Z,101033.88
2022-09-07T04:23:43.176Z,101035.72
2022-09-07T04:26:34.305Z,101032.75
2022-09-07T04:29:02.971Z,101034.25
2022-09-07T04:31:31.236Z,101042.28
2022-09-07T04:33:58.631Z,101029.31
2022-09-07T04:36:26.094Z,101034.50
2022-09-07T04:39:01.591Z,101046.16
2022-09-07T04:41:31.286Z,101037.59
2022-09-07T04:44:00.867Z,101036.72
2022-09-07T04:46:34.264Z,101042.09
2022-09-07T04:49:05.310Z,101040.34
2022-09-07T04:51:33.394Z,101040.81
2022-09-07T04:54:02.584Z,101052.19
2022-09-07T04:56:30.707Z,101038.31
2022-09-07T04:59:00.163Z,101044.06
2022-09-07T05:01:28.400Z,101043.97
2022-09-07T05:03:56.166Z,101050.22
2022-09-07T05:06:24.339Z,101045.91
2022-09-07T05:08:54.014Z,101045.50
2022-09-07T05:11:28.400Z,101044.28
2022-09-07T05:13:57.045Z,101048.81
2022-09-07T05:16:25.989Z,101031.16
2022-09-07T05:18:58.649Z,101042.84
2022-09-07T05:21:28.613Z,101050.97
2022-09-07T05:23:58.182Z,101046.72
2022-09-07T05:26:28.577Z,101051.78
2022-09-07T05:31:43.277Z,101041.81
2022-09-07T05:36:58.628Z,101033.06
2022-09-07T05:39:27.024Z,101046.06
2022-09-07T05:41:54.409Z,101046.53
2022-09-07T05:47:09.391Z,101049.19
2022-09-07T05:49:36.627Z,101050.53
2022-09-07T05:52:03.980Z,101059.91
2022-09-07T05:54:31.265Z,101058.97
2022-09-07T05:56:58.904Z,101067.44
2022-09-07T05:59:26.419Z,101066.41
2022-09-07T06:01:53.778Z,101060.81
2022-09-07T06:04:21.285Z,101064.94
2022-09-07T06:07:17.790Z,101058.66
2022-09-07T06:12:24.190Z,101073.47
2022-09-07T06:14:51.390Z,101072.13
2022-09-07T06:17:18.669Z,101073.81
2022-09-07T06:19:45.853Z,101067.41
2022-09-07T06:22:13.810Z,101079.97
2022-09-07T06:24:41.044Z,101075.03
2022-09-07T06:27:08.479Z,101074.88
2022-09-07T06:29:35.888Z,101083.50
2022-09-07T06:34:50.777Z,101076.50
2022-09-07T06:37:17.951Z,101090.84
2022-09-07T06:39:45.311Z,101081.25
2022-09-07T06:42:12.825Z,101087.78
2022-09-07T06:44:43.983Z,101098.63
2022-09-07T06:47:11.494Z,101092.81
2022-09-07T06:49:38.693Z,101093.97
2022-09-07T06:52:05.900Z,101103.44
2022-09-07T06:57:20.776Z,101098.53
2022-09-07T06:59:48.032Z,101102.53
2022-09-07T07:02:15.360Z,101101.84
2022-09-07T07:04:43.325Z,101100.91
2022-09-07T07:07:14.167Z,101106.56
2022-09-07T07:09:42.067Z,101097.66
2022-09-07T07:12:10.971Z,101101.84
2022-09-07T07:14:43.958Z,101102.00
2022-09-07T07:17:12.874Z,101106.16
2022-09-07T07:19:40.244Z,101103.00
2022-09-07T07:22:36.003Z,101103.50
2022-09-07T07:24:56.064Z,101094.72
2022-09-07T07:27:23.315Z,101104.78
2022-09-07T07:29:50.947Z,101115.41
2022-09-07T07:32:18.446Z,101103.63
2022-09-07T07:34:45.742Z,101111.09
2022-09-07T07:37:12.895Z,101118.88
2022-09-07T07:42:27.633Z,101106.44
2022-09-07T07:47:43.300Z,101102.97
2022-09-07T07:55:45.645Z,101109.50
2022-09-07T07:58:13.104Z,101108.84
2022-09-07T08:00:53.879Z,101106.41
2022-09-07T08:03:23.722Z,101092.31
2022-09-07T08:05:51.821Z,101093.34
2022-09-07T08:08:22.113Z,101086.06
2022-09-07T08:10:50.252Z,101087.59
2022-09-07T08:13:19.376Z,101085.75
2022-09-07T08:15:46.932Z,101076.16
2022-09-07T08:18:16.480Z,101081.66
2022-09-07T08:20:44.403Z,101084.97
2022-09-07T08:23:12.033Z,101071.84
2022-09-07T08:25:48.660Z,101067.03
2022-09-07T08:28:15.899Z,101085.75
2022-09-07T08:30:43.265Z,101083.75
2022-09-07T08:33:10.389Z,101084.59
2022-09-07T08:35:38.206Z,101074.16
2022-09-07T08:38:05.513Z,101068.19
2022-09-07T08:40:36.012Z,101071.03
2022-09-07T08:43:22.038Z,101067.19
2022-09-07T08:45:54.793Z,101061.69
2022-09-07T08:48:31.766Z,101065.97
2022-09-07T08:51:09.887Z,101071.97
2022-09-07T08:53:46.445Z,101069.16
2022-09-07T08:56:23.693Z,101067.69
2022-09-07T08:58:56.178Z,101063.06
2022-09-07T09:01:33.687Z,101056.91
2022-09-07T09:04:18.689Z,101053.22
2022-09-07T09:07:01.656Z,101058.84
2022-09-07T09:10:07.392Z,101053.81
2022-09-07T09:12:57.139Z,101049.91
2022-09-07T09:15:32.154Z,101044.25
2022-09-07T09:18:22.458Z,101053.63
2022-09-07T09:20:58.777Z,101055.78
2022-09-07T09:23:36.668Z,101056.44
2022-09-07T09:26:14.559Z,101063.28
2022-09-07T09:28:42.274Z,101045.97
2022-09-07T09:31:26.841Z,101055.91
2022-09-07T09:34:08.274Z,101070.09
2022-09-07T09:36:42.828Z,101056.34
2022-09-07T09:39:38.651Z,101052.22
2022-09-07T09:42:12.483Z,101060.63
2022-09-07T09:44:41.680Z,101048.50
2022-09-07T09:47:30.272Z,101053.94
2022-09-07T09:50:01.486Z,101045.81
2022-09-07T09:52:45.151Z,101040.59
2022-09-07T09:55:40.938Z,101041.69
2022-09-07T10:01:34.992Z,101046.22
2022-09-07T10:04:30.838Z,101036.69
2022-09-07T10:07:05.581Z,101042.88
2022-09-07T10:09:39.284Z,101035.22
2022-09-07T10:12:08.963Z,101039.09
2022-09-07T10:14:42.433Z,101032.06
2022-09-07T10:17:19.383Z,101045.03
2022-09-07T10:19:46.559Z,101026.13
2022-09-07T10:22:36.067Z,101038.38
2022-09-07T10:25:34.257Z,101041.00
2022-09-07T10:28:11.599Z,101033.66
2022-09-07T10:30:59.463Z,101030.38
2022-09-07T10:37:01.340Z,101023.38
2022-09-07T10:39:36.283Z,101028.56
2022-09-07T10:42:09.384Z,101025.88
2022-09-07T10:44:52.357Z,101025.31
2022-09-07T10:47:25.596Z,101035.03
2022-09-07T10:50:43.469Z,101035.03
2022-09-07T10:53:40.632Z,101025.59
2022-09-07T10:56:32.483Z,101024.28
2022-09-07T11:00:07.439Z,101021.81
2022-09-07T11:02:26.440Z,101022.56
2022-09-07T11:05:11.987Z,101021.81
2022-09-07T11:08:15.586Z,101017.84
2022-09-07T11:10:51.836Z,101017.91
2022-09-07T11:13:25.197Z,101009.56
2022-09-07T11:16:02.037Z,101004.16
2022-09-07T11:18:47.485Z,101010.81
2022-09-07T11:21:56.028Z,101005.97
2022-09-07T11:24:41.705Z,101011.91
2022-09-07T11:27:38.952Z,101012.69
2022-09-07T11:30:25.081Z,100993.72
2022-09-07T11:33:03.769Z,100998.13
2022-09-07T11:35:45.375Z,100996.84
2022-09-07T11:38:37.797Z,100994.16
2022-09-07T11:41:10.801Z,100989.91
2022-09-07T11:43:46.619Z,101003.19
2022-09-07T11:46:39.159Z,100999.59
2022-09-07T11:49:32.829Z,101004.25
2022-09-07T11:52:20.293Z,101003.25
2022-09-07T11:54:57.258Z,101005.50
2022-09-07T11:57:42.060Z,100999.97
2022-09-07T12:00:20.264Z,100996.19
2022-09-07T12:03:20.910Z,100992.00
2022-09-07T12:05:49.678Z,100985.03
2022-09-07T12:08:35.020Z,100990.63
2022-09-07T12:11:08.414Z,100988.53
2022-09-07T12:14:12.145Z,100992.47
2022-09-07T12:16:59.099Z,100993.97
2022-09-07T12:19:28.407Z,100993.78
2022-09-07T12:21:58.182Z,100995.38
2022-09-07T12:24:51.820Z,100990.38
2022-09-07T12:27:22.226Z,100984.25
2022-09-07T12:30:12.526Z,100976.75
2022-09-07T12:32:57.700Z,100972.16
2022-09-07T12:35:28.640Z,100981.41
2022-09-07T12:38:03.916Z,100970.41
2022-09-07T12:40:37.648Z,100969.75
2022-09-07T12:43:17.024Z,100981.19
2022-09-07T12:45:44.116Z,100978.81
2022-09-07T12:48:11.976Z,100976.22
2022-09-07T12:51:03.617Z,100982.75
2022-09-07T12:53:57.572Z,100993.00
2022-09-07T12:57:28.669Z,100990.13
2022-09-07T13:00:12.286Z,100978.72
2022-09-07T13:03:49.406Z,100976.81
2022-09-07T13:05:58.825Z,100982.34
2022-09-07T13:08:42.202Z,100969.91
2022-09-07T13:11:38.289Z,100975.50
2022-09-07T13:14:15.537Z,100970.88
2022-09-07T13:20:18.060Z,100979.66
2022-09-07T13:22:45.633Z,100967.38
2022-09-07T13:25:24.028Z,100968.59
2022-09-07T13:27:59.887Z,100959.91
2022-09-07T13:30:48.759Z,100960.31
2022-09-07T13:33:25.326Z,100959.06
2022-09-07T13:35:57.064Z,100962.16
2022-09-07T13:38:24.401Z,100958.84
2022-09-07T13:40:54.838Z,100965.00
2022-09-07T13:43:24.502Z,100963.75
2022-09-07T13:45:54.879Z,100963.00
2022-09-07T13:48:31.068Z,100959.16
2022-09-07T13:51:10.535Z,100953.25
2022-09-07T13:54:28.600Z,100962.72
2022-09-07T13:57:35.231Z,100962.38
2022-09-07T14:00:02.829Z,100962.97
2022-09-07T14:02:34.924Z,100963.22
2022-09-07T14:05:03.319Z,100955.69
2022-09-07T14:07:31.713Z,100956.97
2022-09-07T14:10:10.657Z,100957.34
2022-09-07T14:13:08.464Z,100956.53
2022-09-07T14:15:42.695Z,100949.44
2022-09-07T14:18:29.608Z,100955.09
2022-09-07T14:20:57.903Z,100942.59
2022-09-07T14:23:32.316Z,100960.06
2022-09-07T14:26:26.698Z,100957.81
2022-09-07T14:28:57.305Z,100948.13
2022-09-07T14:31:25.987Z,100962.78
2022-09-07T14:33:56.920Z,100959.22
2022-09-07T14:36:48.489Z,100963.56
2022-09-07T14:39:18.675Z,100959.91
2022-09-07T14:41:46.885Z,100957.00
2022-09-07T14:44:31.841Z,100974.44
2022-09-07T14:47:01.081Z,100972.44
2022-09-07T14:49:28.896Z,100974.69
2022-09-07T14:51:56.371Z,100965.84
2022-09-07T14:54:33.227Z,100969.50
2022-09-07T14:57:28.505Z,100971.00
2022-09-07T14:59:57.380Z,100961.75
2022-09-07T15:02:33.351Z,100971.41
2022-09-07T15:05:23.425Z,100983.06
2022-09-07T15:08:01.977Z,100980.69
2022-09-07T15:10:35.656Z,100977.00
2022-09-07T15:13:06.319Z,100963.28
2022-09-07T15:15:41.350Z,100985.16
2022-09-07T15:18:54.456Z,100976.41
2022-09-07T15:21:23.742Z,100979.41
2022-09-07T15:23:52.703Z,100966.00
2022-09-07T15:29:18.632Z,100984.53
2022-09-07T15:31:59.271Z,100993.06
2022-09-07T15:34:28.879Z,100990.78
2022-09-07T15:37:00.168Z,100971.56
2022-09-07T15:39:30.219Z,100997.53
2022-09-07T15:42:00.528Z,100995.81
2022-09-07T15:44:45.742Z,101000.31
2022-09-07T15:50:00.226Z,100997.47
2022-09-07T15:52:28.136Z,100990.59
2022-09-07T15:54:59.410Z,101008.38
2022-09-07T16:00:15.353Z,101016.78
2022-09-07T16:05:31.460Z,101018.72
2022-09-07T16:11:05.089Z,101017.28
2022-09-07T16:13:33.693Z,101033.78
2022-09-07T16:16:02.267Z,101034.88
2022-09-07T16:18:32.617Z,101038.91
2022-09-07T16:21:12.210Z,101046.28
2022-09-07T16:23:42.974Z,101025.78
2022-09-07T16:26:12.072Z,101047.16
2022-09-07T16:28:41.101Z,101038.25
2022-09-07T16:31:15.361Z,101053.34
2022-09-07T16:33:42.560Z,101040.59
2022-09-07T16:36:14.540Z,101068.34
2022-09-07T16:38:46.001Z,101061.59
2022-09-07T16:41:26.960Z,101044.41
2022-09-07T16:43:54.792Z,101066.63
2022-09-07T16:46:35.494Z,101083.56
2022-09-07T16:49:03.708Z,101088.22
2022-09-07T16:51:30.843Z,101076.28
2022-09-07T16:53:59.815Z,101083.91
2022-09-07T16:56:29.530Z,101086.41
2022-09-07T16:58:59.303Z,101098.38
2022-09-07T17:01:32.924Z,101099.06
2022-09-07T17:04:02.088Z,101095.03
2022-09-07T17:06:31.446Z,101094.38
2022-09-07T17:09:01.773Z,101093.38
2022-09-07T17:11:34.763Z,101101.88
2022-09-07T17:14:02.372Z,101090.59
2022-09-07T17:16:32.466Z,101103.53
2022-09-07T17:21:53.878Z,101100.88
2022-09-07T17:24:21.404Z,101102.22
2022-09-07T17:26:48.779Z,101075.31
2022-09-07T17:29:16.036Z,101109.03
2022-09-07T17:34:31.124Z,101098.72
2022-09-07T17:37:00.528Z,101097.56
2022-09-07T17:39:28.643Z,101098.22
2022-09-07T17:41:56.031Z,101108.34
2022-09-07T17:44:23.782Z,101103.69
2022-09-07T17:46:51.641Z,101111.34
2022-09-07T17:49:19.101Z,101110.53
2022-09-07T17:51:46.838Z,101110.84
2022-09-07T17:54:17.646Z,101113.16
2022-09-07T17:56:47.752Z,101123.44
2022-09-07T18:02:03.361Z,101106.19
2022-09-07T18:04:31.604Z,101112.97
2022-09-07T18:06:58.811Z,101111.19
2022-09-07T18:09:26.136Z,101110.66
2022-09-07T18:11:53.376Z,101104.53
2022-09-07T18:14:20.846Z,101109.31
2022-09-07T18:16:49.927Z,101114.63
2022-09-07T18:19:18.304Z,101106.50
2022-09-07T18:21:48.398Z,101107.81
2022-09-07T18:24:21.594Z,101117.59
2022-09-07T18:26:52.556Z,101110.16
2022-09-07T18:29:37.521Z,101109.16
2022-09-07T18:32:09.485Z,101119.41
2022-09-07T18:34:40.648Z,101116.44
2022-09-07T18:37:08.608Z,101109.97
2022-09-07T18:39:36.062Z,101107.16
2022-09-07T18:42:03.885Z,101105.66
2022-09-07T18:47:27.841Z,101099.53
2022-09-07T18:49:56.197Z,101095.38
2022-09-07T18:55:10.887Z,101104.16
2022-09-07T18:57:39.462Z,101105.47
2022-09-07T19:00:17.902Z,101109.94
2022-09-07T19:02:49.633Z,101110.75
2022-09-07T19:08:04.764Z,101103.53
2022-09-07T19:10:38.567Z,101106.19
2022-09-07T19:13:05.972Z,101099.38
2022-09-07T19:15:37.084Z,101101.38
2022-09-07T19:18:06.220Z,101113.09
2022-09-07T19:20:34.981Z,101115.09
2022-09-07T19:23:03.491Z,101106.13
2022-09-07T19:25:30.662Z,101107.28
2022-09-07T19:27:58.110Z,101102.09
2022-09-07T19:30:25.352Z,101110.41
2022-09-07T19:32:52.655Z,101106.56
2022-09-07T19:35:19.693Z,101106.91
2022-09-07T19:37:48.643Z,101110.22
2022-09-07T19:40:19.287Z,101102.03
2022-09-07T19:42:47.009Z,101108.13
2022-09-07T19:45:15.396Z,101107.25
2022-09-07T19:47:42.916Z,101100.78
2022-09-07T19:50:10.439Z,101093.84
2022-09-07T19:52:37.833Z,101104.78
2022-09-07T19:55:05.310Z,101117.03
2022-09-07T19:57:33.252Z,101111.03
2022-09-07T20:00:00.451Z,101106.19
2022-09-07T20:02:27.910Z,101108.59
2022-09-07T20:04:55.751Z,101105.63
2022-09-07T20:07:23.481Z,101112.56
2022-09-07T20:09:52.098Z,101106.94
2022-09-07T20:12:19.589Z,101120.69
2022-09-07T20:14:46.868Z,101108.44
2022-09-07T20:17:14.020Z,101107.63
2022-09-07T20:19:41.368Z,101110.44
2022-09-07T20:22:08.860Z,101111.56
2022-09-07T20:24:36.160Z,101103.88
2022-09-07T20:27:03.531Z,101117.84
2022-09-07T20:29:31.910Z,101108.44
2022-09-07T20:32:00.602Z,101103.97
2022-09-07T20:34:28.987Z,101116.56
2022-09-07T20:36:57.073Z,101108.81
2022-09-07T20:39:24.704Z,101118.88
2022-09-07T20:41:52.099Z,101110.25
2022-09-07T20:44:19.401Z,101110.41
2022-09-07T20:46:46.844Z,101107.91
2022-09-07T20:49:14.128Z,101113.47
2022-09-07T20:51:42.507Z,101117.56
2022-09-07T20:54:10.280Z,101111.94
2022-09-07T20:56:39.130Z,101105.66
2022-09-07T20:59:07.494Z,101105.47
2022-09-07T21:01:35.883Z,101105.88
2022-09-07T21:04:04.208Z,101109.00
2022-09-07T21:06:31.726Z,101106.63
2022-09-07T21:09:00.083Z,101111.81
2022-09-07T21:11:31.527Z,101106.81
2022-09-07T21:14:07.039Z,101107.34
2022-09-07T21:16:35.422Z,101103.75
2022-09-07T21:19:05.819Z,101097.47
2022-09-07T21:21:41.783Z,101096.47
2022-09-07T21:24:20.290Z,101085.28
2022-09-07T21:26:49.009Z,101099.72
2022-09-07T21:29:23.093Z,101094.81
2022-09-07T21:31:52.489Z,101097.47
2022-09-07T21:34:19.889Z,101094.28
2022-09-07T21:36:47.507Z,101090.13
2022-09-07T21:39:15.395Z,101097.88
2022-09-07T21:41:43.977Z,101090.78
2022-09-07T21:44:15.451Z,101085.53
2022-09-07T21:46:43.490Z,101087.13
2022-09-07T21:49:11.025Z,101086.81
2022-09-07T21:51:38.669Z,101092.44
2022-09-07T21:54:05.911Z,101088.97
2022-09-07T21:56:33.542Z,101082.38
2022-09-07T21:59:02.664Z,101086.22
2022-09-07T22:01:31.606Z,101067.84
2022-09-07T22:04:01.586Z,101074.44
2022-09-07T22:06:30.006Z,101077.34
2022-09-07T22:08:58.894Z,101068.41
2022-09-07T22:11:28.962Z,101082.88
2022-09-07T22:14:02.076Z,101073.28
2022-09-07T22:16:30.719Z,101077.16
2022-09-07T22:18:58.193Z,101087.06
2022-09-07T22:21:28.322Z,101077.59
2022-09-07T22:24:01.395Z,101074.78
2022-09-07T22:26:35.254Z,101073.25
2022-09-07T22:29:02.638Z,101066.72
2022-09-07T22:31:32.847Z,101073.19
2022-09-07T22:34:02.156Z,101084.22
2022-09-07T22:36:35.329Z,101079.03
2022-09-07T22:39:05.052Z,101079.00
2022-09-07T22:41:34.892Z,101069.44
2022-09-07T22:44:02.369Z,101073.22
2022-09-07T22:46:31.758Z,101073.69
2022-09-07T22:48:59.440Z,101070.16
2022-09-07T22:51:27.740Z,101065.47
2022-09-07T22:53:56.085Z,101067.13
2022-09-07T22:56:26.753Z,101068.59
2022-09-07T22:59:00.555Z,101067.78
2022-09-07T23:01:29.200Z,101068.75
2022-09-07T23:03:56.849Z,101061.47
2022-09-07T23:06:36.248Z,101068.59
2022-09-07T23:09:09.997Z,101059.13
2022-09-07T23:11:37.299Z,101057.88
2022-09-07T23:14:07.694Z,101067.03
2022-09-07T23:16:35.150Z,101064.72
2022-09-07T23:19:02.568Z,101067.53
2022-09-07T23:21:30.415Z,101057.53
2022-09-07T23:23:59.931Z,101062.94
2022-09-07T23:26:29.389Z,101068.25
2022-09-07T23:29:01.981Z,101063.63
2022-09-07T23:31:31.271Z,101064.97
2022-09-07T23:33:59.257Z,101070.03
2022-09-07T23:36:26.942Z,101065.25
2022-09-07T23:38:56.671Z,101065.44
2022-09-07T23:41:27.766Z,101069.91
2022-09-07T23:43:56.103Z,101065.91
2022-09-07T23:46:23.656Z,101074.75
2022-09-07T23:48:51.456Z,101075.28
2022-09-07T23:51:23.452Z,101072.38
2022-09-07T23:53:52.071Z,101073.22
2022-09-07T23:56:20.301Z,101066.06
2022-09-07T23:58:47.855Z,101064.41
